TimeCDT,TemperatureF,Dew PointF,Humidity,Sea Level PressureIn,VisibilityMPH,Wind Direction,Wind SpeedMPH,Gust SpeedMPH,PrecipitationIn,Events,Conditions,WindDirDegrees,DateUTC
12:15 AM,33.8,32.2,94,30.21,10.0,NNE,5.8,-,N/A,,Overcast,30,2013-04-04 05:15:00
12:35 AM,33.8,32.4,94,30.21,10.0,Calm,Calm,-,N/A,,Overcast,0,2013-04-04 05:35:00
12:55 AM,33.8,32.4,94,30.20,7.0,NNE,3.5,-,N/A,,Overcast,30,2013-04-04 05:55:00
1:15 AM,33.8,32.4,94,30.20,7.0,NNE,3.5,-,N/A,,Overcast,20,2013-04-04 06:15:00
1:35 AM,33.8,32.5,95,30.19,7.0,NNE,3.5,-,N/A,,Overcast,30,2013-04-04 06:35:00
1:55 AM,33.8,32.5,95,30.19,4.0,Calm,Calm,-,N/A,,Overcast,0,2013-04-04 06:55:00
2:15 AM,33.4,32.5,96,30.18,4.0,Calm,Calm,-,N/A,,Overcast,0,2013-04-04 07:15:00
2:35 AM,33.8,32.9,96,30.19,5.0,WNW,3.5,-,N/A,,Overcast,300,2013-04-04 07:35:00
2:55 AM,33.8,32.9,96,30.18,7.0,WNW,5.8,-,N/A,,Overcast,300,2013-04-04 07:55:00
3:15 AM,33.8,32.2,94,30.17,10.0,NW,5.8,-,N/A,,Overcast,320,2013-04-04 08:15:00
3:35 AM,33.8,32.0,93,30.17,10.0,NW,6.9,-,N/A,,Overcast,320,2013-04-04 08:35:00
3:55 AM,33.4,31.8,94,30.17,10.0,NW,5.8,-,N/A,,Overcast,320,2013-04-04 08:55:00
4:15 AM,32.5,31.5,96,30.16,10.0,NW,5.8,-,N/A,,Overcast,320,2013-04-04 09:15:00
4:35 AM,33.1,32.0,96,30.16,10.0,NNW,5.8,-,N/A,,Overcast,340,2013-04-04 09:35:00
4:55 AM,33.3,31.8,94,30.16,10.0,NW,6.9,-,N/A,,Overcast,320,2013-04-04 09:55:00
5:15 AM,33.3,32.0,95,30.16,10.0,NW,6.9,-,N/A,,Overcast,320,2013-04-04 10:15:00
5:35 AM,32.9,31.8,96,30.16,10.0,NW,6.9,-,N/A,,Overcast,320,2013-04-04 10:35:00
5:55 AM,33.1,32.0,96,30.16,7.0,NNW,6.9,-,N/A,,Overcast,330,2013-04-04 10:55:00
6:15 AM,32.9,32.0,96,30.16,7.0,North,5.8,-,N/A,,Overcast,350,2013-04-04 11:15:00
6:35 AM,32.9,32.0,96,30.17,5.0,NNW,4.6,-,N/A,,Overcast,330,2013-04-04 11:35:00
6:55 AM,32.5,31.8,97,30.16,4.0,NNW,3.5,-,N/A,,Overcast,330,2013-04-04 11:55:00
7:15 AM,32.4,32.0,99,30.16,3.0,NW,3.5,-,N/A,,Overcast,320,2013-04-04 12:15:00
7:35 AM,32.2,31.8,99,30.17,4.0,NNW,3.5,-,N/A,,Overcast,340,2013-04-04 12:35:00
7:55 AM,32.5,32.0,98,30.18,1.2,NW,6.9,-,N/A,,Overcast,310,2013-04-04 12:55:00
8:15 AM,32.2,32.0,99,30.18,1.8,NW,3.5,-,N/A,,Overcast,310,2013-04-04 13:15:00
8:35 AM,32.7,32.0,97,30.19,1.8,NW,5.8,-,N/A,,Overcast,320,2013-04-04 13:35:00
8:55 AM,32.9,32.0,96,30.19,1.0,WNW,4.6,-,N/A,,Overcast,300,2013-04-04 13:55:00
9:15 AM,32.9,32.0,96,30.19,0.5,West,5.8,-,N/A,,Overcast,280,2013-04-04 14:15:00
9:35 AM,32.7,32.0,97,30.19,0.8,Calm,Calm,-,N/A,,Overcast,0,2013-04-04 14:35:00
9:55 AM,32.9,32.2,97,30.20,0.2,NW,4.6,-,N/A,,Overcast,310,2013-04-04 14:55:00
10:15 AM,33.8,33.1,97,30.21,1.0,WNW,5.8,-,N/A,,Overcast,300,2013-04-04 15:15:00
10:35 AM,34.3,33.8,98,30.21,1.5,WNW,5.8,-,N/A,,Overcast,300,2013-04-04 15:35:00
10:55 AM,35.2,34.3,97,30.20,2.0,Calm,Calm,-,N/A,,Overcast,0,2013-04-04 15:55:00
11:35 AM,38.5,35.1,87,30.19,7.0,West,3.5,-,N/A,,Overcast,280,2013-04-04 16:35:00
11:55 AM,40.8,35.8,82,30.19,10.0,WSW,3.5,-,N/A,,Overcast,240,2013-04-04 16:55:00
12:15 PM,42.6,36.0,77,30.19,10.0,SW,4.6,-,N/A,,Scattered Clouds,220,2013-04-04 17:15:00
12:35 PM,45.1,37.0,73,30.18,10.0,West,3.5,-,N/A,,Scattered Clouds,280,2013-04-04 17:35:00
12:55 PM,48.0,37.6,67,30.18,10.0,West,3.5,-,N/A,,Clear,260,2013-04-04 17:55:00
1:15 PM,50.2,36.7,60,30.17,10.0,WNW,4.6,-,N/A,,Clear,290,2013-04-04 18:15:00
1:35 PM,52.3,36.5,55,30.16,10.0,WSW,3.5,-,N/A,,Clear,250,2013-04-04 18:35:00
1:55 PM,54.3,35.4,49,30.15,10.0,North,4.6,-,N/A,,Clear,360,2013-04-04 18:55:00
2:15 PM,54.9,35.6,48,30.14,10.0,WNW,4.6,-,N/A,,Clear,290,2013-04-04 19:15:00
2:35 PM,56.1,36.0,47,30.13,10.0,Calm,Calm,-,N/A,,Clear,0,2013-04-04 19:35:00
2:55 PM,57.6,35.2,43,30.13,10.0,NNE,4.6,-,N/A,,Clear,30,2013-04-04 19:55:00
3:15 PM,58.5,34.7,41,30.12,10.0,ENE,3.5,-,N/A,,Clear,70,2013-04-04 20:15:00
3:35 PM,59.4,34.3,39,30.12,10.0,Calm,Calm,-,N/A,,Clear,0,2013-04-04 20:35:00
3:55 PM,60.6,34.9,38,30.11,10.0,ENE,4.6,-,N/A,,Clear,70,2013-04-04 20:55:00
4:15 PM,61.0,34.2,37,30.10,10.0,Calm,Calm,-,N/A,,Clear,0,2013-04-04 21:15:00
4:35 PM,61.7,32.5,33,30.10,10.0,Calm,Calm,-,N/A,,Clear,0,2013-04-04 21:35:00
4:55 PM,62.2,32.9,33,30.11,10.0,East,3.5,-,N/A,,Clear,90,2013-04-04 21:55:00
5:15 PM,62.4,32.2,32,30.11,10.0,Calm,Calm,-,N/A,,Clear,0,2013-04-04 22:15:00
5:35 PM,63.0,32.0,31,30.10,10.0,Calm,Calm,-,N/A,,Clear,0,2013-04-04 22:35:00
5:55 PM,63.1,30.4,29,30.11,10.0,Calm,Calm,-,N/A,,Clear,0,2013-04-04 22:55:00
6:15 PM,63.1,32.0,31,30.10,10.0,Calm,Calm,-,N/A,,Clear,0,2013-04-04 23:15:00
6:35 PM,63.0,32.5,32,30.10,10.0,Calm,Calm,-,N/A,,Clear,0,2013-04-04 23:35:00
6:55 PM,62.8,32.2,32,30.11,10.0,SSE,4.6,-,N/A,,Clear,160,2013-04-04 23:55:00
7:15 PM,61.9,31.8,32,30.11,10.0,ESE,6.9,-,N/A,,Clear,120,2013-04-05 00:15:00
7:35 PM,60.6,33.3,36,30.11,10.0,SE,5.8,-,N/A,,Clear,130,2013-04-05 00:35:00
7:55 PM,57.2,35.2,44,30.12,10.0,SE,6.9,-,N/A,,Clear,140,2013-04-05 00:55:00
8:15 PM,53.6,34.3,48,30.11,10.0,SE,8.1,-,N/A,,Clear,130,2013-04-05 01:15:00
8:35 PM,50.2,34.3,55,30.11,10.0,SE,8.1,-,N/A,,Clear,130,2013-04-05 01:35:00
8:55 PM,48.4,34.3,58,30.11,10.0,SE,6.9,-,N/A,,Clear,130,2013-04-05 01:55:00
9:15 PM,47.1,34.5,62,30.11,10.0,SE,8.1,-,N/A,,Clear,130,2013-04-05 02:15:00
9:35 PM,46.6,34.3,62,30.11,10.0,SE,10.4,-,N/A,,Clear,130,2013-04-05 02:35:00
9:55 PM,45.3,33.4,63,30.12,10.0,SE,10.4,-,N/A,,Clear,140,2013-04-05 02:55:00
10:15 PM,44.6,33.8,66,30.12,10.0,SE,9.2,-,N/A,,Clear,140,2013-04-05 03:15:00
10:35 PM,43.9,33.3,66,30.14,10.0,South,6.9,-,N/A,,Clear,170,2013-04-05 03:35:00
10:55 PM,41.5,32.9,71,30.14,10.0,South,9.2,-,N/A,,Clear,190,2013-04-05 03:55:00
11:15 PM,41.7,33.3,72,30.15,10.0,South,8.1,-,N/A,,Clear,190,2013-04-05 04:15:00
11:35 PM,41.0,33.8,76,30.14,10.0,South,8.1,-,N/A,,Clear,170,2013-04-05 04:35:00
11:55 PM,39.7,33.1,77,30.13,10.0,SSE,9.2,-,N/A,,Clear,160,2013-04-05 04:55:00